WAOOWIOO

Guest
Details From WAOO - Banjarmasin Syamsudin Noor
To WIOO - Pontianak Supadio
Flight Number -
Tags generated
Created
Modified
Stats Distance 378 nm / 699 km
Max Altitude 32,800 ft / 9,997 m
Waypoints 5
Social Downloads 15
Likes 0
Share VATSIM

Download

Looking for another format? Having issues loading an existing format? Contact us
Advertisement - Login to hide

Notes

Basic altitude profile: - Ascent Rate: 2500ft/min - Ascent Speed: 250kts - Cruise Altitude: 30000ft - Cruise Speed: 280kts - Descent Rate: 1800ft/min - Descent Speed: 250kts Options: - Use NATs: no - Use PACOTS: no - Use low airways: yes - Use high airways: yes

Route

WAOO BDM W35 EBONY WIOO

ID Type Via Altitude Latitude Longitude Leg Dist Tot Dist Heading (true) Name
O WAOO APT - 0 ft / 0 m -3.44235˚ 114.76255˚ - 0 nm - Banjarmasin Syamsudin Noor
BDM VOR - 600 ft / 183 m -3.43680˚ 114.73149˚ 1 nm 1 nm 280° / 280° BANJARMASIN VOR-DME
NOMAD FIX W35 (AWY-LO) 32,800 ft / 9,997 m -1.46793˚ 111.59033˚ 222 nm 224 nm 302° / 302° -
EBONY FIX W35 (AWY-HI) 24,500 ft / 7,468 m -0.90833˚ 110.70333˚ 62 nm 287 nm 302° / 302° -
O WIOO APT - 0 ft / 0 m -0.15071˚ 109.40389˚ 90 nm 377 nm 300° / 300° Pontianak Supadio

Altitude Profile

Advertisement - Login to hide

Weather


0- 5 10 15 20 25 30 35+ Temperature / ° C

Clouds and Precipitation
Forecast for 2017-12-18 12:00 UTC. Updated 2 hours ago

Ground ~20,000 ft ~40,000 ft Winds

WAOO

Details ICAO WAOO (BDJ)
Name Banjarmasin Syamsudin Noor
Region Indonesia
Timezone Asia/Makassar (UTC+8.0)
Stats Elevation 66 ft / 20 m (AMSL)
Location -3.442354° 114.762552°
Runways 1
Magnetic Variation 0.719° E

METAR

WAOO 181230Z 25005KT 9999 SCT018 27/24 Q1010

Decode

TAF

Not found

Departure Runways

ID Width Length Bearing (true) Bearing (mag) Surface Threshold Offset Overrun Length
10 148 ft / 45 m 8,208 ft / 2,502 m 100.45° 99.73° Asphalt 0 ft / 0 m 200 ft / 61 m
28 148 ft / 45 m 8,208 ft / 2,502 m 280.45° 279.73° Asphalt 0 ft / 0 m 200 ft / 61 m

WIOO

Details ICAO WIOO (PNK)
Name Pontianak Supadio
Region Indonesia
Timezone Asia/Pontianak (UTC+7.0)
Stats Elevation 10 ft / 3 m (AMSL)
Location -0.150708° 109.403890°
Runways 1
Magnetic Variation 0.498° E

METAR

WIOO 181230Z 34004KT 6000 SCT013 27/24 Q1010 NOSIG

Decode

TAF

Not found

Destination Runways

ID Width Length Bearing (true) Bearing (mag) Surface Threshold Offset Overrun Length
15 98 ft / 30 m 7,400 ft / 2,256 m 157.81° 157.31° Asphalt 0 ft / 0 m 213 ft / 65 m
33 98 ft / 30 m 7,400 ft / 2,256 m 337.81° 337.31° Asphalt 0 ft / 0 m 197 ft / 60 m

Approach Navaids

Runway Type Ident Frequency Range Bearing (true) Bearing (mag) Slope Elevation
15 Localiser IPNK 111.30 MHz 18 nm / 33 km 157.35° 156.85° - 10 ft / 3 m (AMSL)
15 Glidescope IPNK 111.30 MHz 10 nm / 19 km 157.81° 157.32° 3.00° 10 ft / 3 m (AMSL)